Time;durP1;ratioP1;P1;durP2;ratioP2;P2;SDS_P1;SDS_P2;PMS_P1;PMS_P2;Temp;Humidity;BMP_temperature;BMP_pressure;BME280_temperature;BME280_humidity;BME280_pressure;Samples;Min_cycle;Max_cycle;Signal;HPM_P1;HPM_P2
2022/09/26 00:01:30;;;;;;;4.13;1.17;;;17.80;81.20;;;;;;5031664;28;20374;-66
2022/09/26 00:04:04;;;;;;;3.78;2.45;;;17.90;81.40;;;;;;5026285;28;20037;-72
2022/09/26 00:06:31;;;;;;;4.47;1.10;;;18.00;82.30;;;;;;5025808;28;20103;-66
2022/09/26 00:08:58;;;;;;;3.03;0.95;;;18.10;79.70;;;;;;5029764;28;20025;-68
2022/09/26 00:11:29;;;;;;;4.35;1.60;;;18.20;79.70;;;;;;5029695;28;20032;-67
2022/09/26 00:13:59;;;;;;;8.73;2.20;;;18.20;78.30;;;;;;5029206;28;20018;-67
2022/09/26 00:16:27;;;;;;;7.85;1.40;;;18.30;77.60;;;;;;5029508;28;20032;-66
2022/09/26 00:18:57;;;;;;;5.43;1.73;;;18.30;78.80;;;;;;5028502;28;20055;-66
2022/09/26 00:21:26;;;;;;;4.82;1.20;;;18.30;77.30;;;;;;5046612;28;20418;-67
2022/09/26 00:23:55;;;;;;;6.60;1.80;;;18.40;78.50;;;;;;5029044;28;20483;-67
2022/09/26 00:26:23;;;;;;;4.60;1.40;;;18.30;77.80;;;;;;5036364;28;20033;-68
2022/09/26 00:28:51;;;;;;;5.88;1.70;;;18.20;81.40;;;;;;5029884;28;20070;-67
2022/09/26 00:31:23;;;;;;;5.35;1.50;;;18.30;82.10;;;;;;5030401;28;20018;-66
2022/09/26 00:33:50;;;;;;;4.43;1.38;;;18.40;80.90;;;;;;5026649;28;20025;-67
2022/09/26 00:36:18;;;;;;;5.63;1.75;;;18.70;81.00;;;;;;5027663;28;20063;-66
2022/09/26 00:38:45;;;;;;;5.93;2.05;;;18.80;77.30;;;;;;5027322;28;20116;-66
2022/09/26 00:41:15;;;;;;;7.30;1.90;;;18.80;77.30;;;;;;5028869;28;20525;-66
2022/09/26 00:43:47;;;;;;;5.65;1.88;;;18.80;76.50;;;;;;5028985;28;20104;-67
2022/09/26 00:46:26;;;;;;;8.23;2.40;;;18.70;75.50;;;;;;5017460;28;20030;-66
2022/09/26 00:49:16;;;;;;;4.70;1.92;;;18.80;77.80;;;;;;5019392;28;20470;-66
2022/09/26 00:51:47;;;;;;;8.07;1.90;;;18.80;73.70;;;;;;5018417;28;20049;-67
2022/09/26 00:54:18;;;;;;;7.95;2.17;;;18.90;75.20;;;;;;5026799;28;20075;-68
2022/09/26 00:56:48;;;;;;;7.40;2.55;;;19.10;70.90;;;;;;5025329;28;20037;-67
2022/09/26 00:59:27;;;;;;;7.85;2.72;;;19.20;69.90;;;;;;5029037;28;20498;-67
2022/09/26 01:01:58;;;;;;;5.22;1.85;;;19.10;70.90;;;;;;5029189;28;20025;-67
2022/09/26 01:04:27;;;;;;;6.57;1.60;;;19.30;73.80;;;;;;5029442;28;20025;-67
2022/09/26 01:06:57;;;;;;;4.65;2.17;;;19.60;72.70;;;;;;5029112;28;20128;-67
2022/09/26 01:09:26;;;;;;;6.00;1.83;;;19.90;69.90;;;;;;5027723;28;20462;-67
2022/09/26 01:11:54;;;;;;;7.22;2.13;;;20.10;67.40;;;;;;5022282;28;20030;-67
2022/09/26 01:14:21;;;;;;;5.30;1.80;;;20.30;64.10;;;;;;5029636;28;20052;-67
2022/09/26 01:16:50;;;;;;;6.50;1.75;;;20.30;64.40;;;;;;5025345;28;20030;-67
2022/09/26 01:19:53;;;;;;;6.47;1.35;;;20.00;65.00;;;;;;5027008;28;20033;-67
2022/09/26 01:22:57;;;;;;;3.08;1.30;;;20.00;68.10;;;;;;5034915;28;20120;-66
2022/09/26 01:26:08;;;;;;;5.90;1.27;;;20.00;68.00;;;;;;5024805;28;20144;-66
2022/09/26 01:29:10;;;;;;;5.15;1.38;;;20.00;67.90;;;;;;5017936;28;20069;-66
2022/09/26 01:35:08;;;;;;;3.97;1.55;;;19.80;72.00;;;;;;5031178;28;20036;-68
2022/09/26 01:37:38;;;;;;;6.20;1.77;;;20.10;71.30;;;;;;5033023;28;20037;-66
2022/09/26 01:40:18;;;;;;;5.55;1.30;;;20.40;70.80;;;;;;5039285;28;20033;-66
2022/09/26 01:42:57;;;;;;;6.97;1.50;;;20.30;72.10;;;;;;5050073;28;20029;-66
2022/09/26 01:45:35;;;;;;;6.05;1.55;;;20.50;70.00;;;;;;5035804;28;20030;-66
2022/09/26 01:48:17;;;;;;;8.60;1.63;;;20.40;69.80;;;;;;5025060;28;20037;-65
2022/09/26 01:50:50;;;;;;;5.22;1.48;;;20.60;71.80;;;;;;5035836;28;20105;-67
2022/09/26 01:53:32;;;;;;;3.53;1.33;;;21.10;73.20;;;;;;5035367;28;20518;-65
2022/09/26 01:56:13;;;;;;;3.30;1.52;;;21.80;73.40;;;;;;5014009;28;20119;-67
2022/09/26 01:59:13;;;;;;;10.13;1.95;;;22.10;69.40;;;;;;5030449;28;20029;-68
2022/09/26 02:01:43;;;;;;;6.97;2.05;;;22.50;72.40;;;;;;5004168;28;20037;-69
2022/09/26 02:04:27;;;;;;;6.70;1.90;;;22.80;70.00;;;;;;5027623;28;20018;-65
2022/09/26 02:07:03;;;;;;;8.63;1.50;;;22.50;67.60;;;;;;5033400;28;20034;-66
2022/09/26 02:09:40;;;;;;;7.50;2.25;;;22.50;71.10;;;;;;5030130;28;20026;-68
2022/09/26 02:12:10;;;;;;;5.18;1.88;;;22.60;69.40;;;;;;5027979;28;20597;-65
2022/09/26 02:14:40;;;;;;;5.60;1.83;;;22.50;71.40;;;;;;5027315;28;20168;-67
2022/09/26 02:17:21;;;;;;;8.68;2.55;;;22.40;69.60;;;;;;5030246;28;20528;-65
2022/09/26 02:20:10;;;;;;;5.18;1.80;;;22.10;73.40;;;;;;5031792;28;20140;-66
2022/09/26 02:22:38;;;;;;;4.38;2.10;;;22.30;73.20;;;;;;5031708;28;20017;-67
2022/09/26 02:25:07;;;;;;;5.97;2.03;;;22.00;72.60;;;;;;5030327;28;20394;-66
2022/09/26 02:27:34;;;;;;;7.55;1.83;;;22.10;70.40;;;;;;5031263;28;20103;-66
2022/09/26 02:30:01;;;;;;;5.57;1.60;;;22.00;71.00;;;;;;5028735;28;20018;-66
2022/09/26 02:32:31;;;;;;;3.83;1.88;;;21.80;71.80;;;;;;5032096;28;20087;-66
2022/09/26 02:35:00;;;;;;;7.00;1.63;;;21.90;73.80;;;;;;5029053;28;20047;-66
2022/09/26 02:37:31;;;;;;;4.00;1.92;;;22.00;74.50;;;;;;5030467;28;20054;-66
2022/09/26 02:39:59;;;;;;;5.25;1.70;;;22.20;70.80;;;;;;5010726;28;20061;-66
2022/09/26 02:42:37;;;;;;;7.90;2.63;;;22.20;70.40;;;;;;5024768;28;20029;-65
2022/09/26 02:45:07;;;;;;;5.70;2.45;;;22.50;72.70;;;;;;5030511;28;20074;-65
2022/09/26 02:48:35;;;;;;;7.00;1.70;;;22.80;70.20;;;;;;5029952;28;20444;-64
2022/09/26 02:51:25;;;;;;;6.55;1.83;;;22.80;65.80;;;;;;4955847;28;20556;-66
2022/09/26 02:54:03;;;;;;;4.18;1.55;;;22.50;66.50;;;;;;4930177;28;21281;-66
2022/09/26 02:56:57;;;;;;;4.75;2.03;;;21.90;68.20;;;;;;5016274;28;20676;-63
2022/09/26 02:59:52;;;;;;;3.60;1.50;;;21.80;70.50;;;;;;5029786;28;20029;-67
2022/09/26 03:02:49;;;;;;;5.60;2.10;;;21.90;71.70;;;;;;5025236;28;20270;-66
2022/09/26 03:05:22;;;;;;;8.27;2.10;;;22.00;71.50;;;;;;5000215;28;20033;-66
2022/09/26 03:07:56;;;;;;;3.92;2.13;;;21.90;69.10;;;;;;5029256;28;20053;-66
2022/09/26 03:10:27;;;;;;;3.45;1.67;;;21.60;68.70;;;;;;5030253;28;20389;-65
2022/09/26 03:13:02;;;;;;;6.72;2.00;;;21.40;74.80;;;;;;5028708;28;20035;-66
2022/09/26 03:15:31;;;;;;;7.53;2.08;;;21.70;71.80;;;;;;5017570;28;20033;-65
2022/09/26 03:18:00;;;;;;;5.72;2.30;;;22.00;74.20;;;;;;5012080;28;20033;-64
2022/09/26 03:20:27;;;;;;;6.55;2.42;;;22.40;72.60;;;;;;5015216;28;20026;-64
2022/09/26 03:22:55;;;;;;;12.93;2.58;;;22.70;70.60;;;;;;5021957;28;20059;-64
2022/09/26 03:25:26;;;;;;;8.93;2.20;;;23.00;69.10;;;;;;5030831;28;20022;-64
2022/09/26 03:27:54;;;;;;;5.13;2.80;;;23.00;65.60;;;;;;5029175;28;20033;-65
2022/09/26 03:30:23;;;;;;;6.57;2.72;;;23.10;65.10;;;;;;5030866;28;20072;-64
2022/09/26 03:32:50;;;;;;;6.93;2.67;;;23.40;69.30;;;;;;5028797;28;20148;-64
2022/09/26 03:35:17;;;;;;;6.30;2.35;;;23.50;70.40;;;;;;5029782;28;20034;-64
2022/09/26 03:37:44;;;;;;;7.38;3.05;;;23.40;66.30;;;;;;5028730;28;20075;-65
2022/09/26 03:40:13;;;;;;;7.65;2.70;;;23.40;68.10;;;;;;5024136;28;20022;-65
2022/09/26 03:42:40;;;;;;;8.02;2.83;;;23.20;67.60;;;;;;5020100;28;20029;-66
2022/09/26 03:45:10;;;;;;;7.53;2.50;;;23.20;65.90;;;;;;5020777;28;20052;-67
2022/09/26 03:47:37;;;;;;;5.30;2.30;;;23.20;67.20;;;;;;5036953;28;20055;-65
2022/09/26 03:50:06;;;;;;;8.38;3.45;;;23.10;68.70;;;;;;5028810;28;20028;-66
2022/09/26 03:52:35;;;;;;;5.80;2.35;;;23.10;69.10;;;;;;5022432;28;20482;-62
2022/09/26 03:55:03;;;;;;;6.35;2.60;;;23.20;67.80;;;;;;5036409;28;20187;-66
2022/09/26 03:57:30;;;;;;;7.45;3.88;;;22.90;64.50;;;;;;5024254;28;20524;-67
2022/09/26 03:59:57;;;;;;;6.63;2.40;;;22.60;66.50;;;;;;5027985;28;20754;-66
2022/09/26 04:02:24;;;;;;;4.97;2.28;;;22.40;69.30;;;;;;5041884;28;20052;-66
2022/09/26 04:04:51;;;;;;;3.75;2.38;;;22.40;68.80;;;;;;5041737;28;20029;-66
2022/09/26 04:07:19;;;;;;;8.10;2.65;;;22.50;67.90;;;;;;5037688;28;20397;-67
2022/09/26 04:09:46;;;;;;;6.22;3.05;;;22.50;68.10;;;;;;5030169;28;20026;-66
2022/09/26 04:12:14;;;;;;;4.03;2.50;;;22.70;68.80;;;;;;5026032;28;20072;-67
2022/09/26 04:14:44;;;;;;;8.38;3.15;;;22.90;65.30;;;;;;5029099;28;20025;-67
2022/09/26 04:17:11;;;;;;;4.38;2.30;;;23.20;64.80;;;;;;5035641;28;20025;-66
2022/09/26 04:19:39;;;;;;;6.65;2.72;;;23.20;64.30;;;;;;5041257;28;20404;-67
2022/09/26 04:22:09;;;;;;;8.05;2.50;;;23.10;64.00;;;;;;5037590;28;20033;-66
2022/09/26 04:24:36;;;;;;;3.13;1.95;;;23.10;64.20;;;;;;5038524;28;20029;-66
2022/09/26 04:27:05;;;;;;;4.68;2.08;;;23.00;62.80;;;;;;5040508;28;20087;-67
2022/09/26 04:29:32;;;;;;;5.90;2.25;;;22.90;62.60;;;;;;5027510;28;20074;-66
2022/09/26 04:31:59;;;;;;;4.90;1.95;;;22.80;63.80;;;;;;5038307;28;20709;-67
2022/09/26 04:34:27;;;;;;;6.25;2.70;;;22.50;64.30;;;;;;5029561;28;20087;-66
2022/09/26 04:36:54;;;;;;;3.78;2.15;;;22.20;65.30;;;;;;5042953;28;20049;-64
2022/09/26 04:39:22;;;;;;;5.43;2.30;;;22.30;66.10;;;;;;5038806;28;20386;-66
2022/09/26 04:41:51;;;;;;;3.92;2.08;;;22.40;64.30;;;;;;5037249;28;20025;-65
2022/09/26 04:44:18;;;;;;;3.38;2.60;;;22.40;64.60;;;;;;5034627;28;20021;-66
2022/09/26 04:46:46;;;;;;;6.70;2.50;;;22.60;63.30;;;;;;5026556;28;20041;-67
2022/09/26 04:49:14;;;;;;;3.30;2.30;;;22.60;64.60;;;;;;5026348;28;20021;-65
2022/09/26 04:51:41;;;;;;;4.95;2.13;;;22.70;63.10;;;;;;5027465;28;20021;-66
2022/09/26 04:54:08;;;;;;;3.92;2.10;;;22.60;62.40;;;;;;5023329;28;20014;-68
2022/09/26 04:56:35;;;;;;;5.50;2.17;;;22.50;67.00;;;;;;5029428;28;20404;-66
2022/09/26 04:59:03;;;;;;;5.90;2.78;;;22.60;64.90;;;;;;5029244;28;20025;-66
2022/09/26 05:01:30;;;;;;;4.85;2.45;;;22.40;63.30;;;;;;5019259;28;20281;-66
2022/09/26 05:03:58;;;;;;;4.07;2.50;;;22.30;64.50;;;;;;5019811;28;20021;-68
2022/09/26 05:06:26;;;;;;;3.90;2.45;;;22.10;65.70;;;;;;5038748;28;20022;-66
2022/09/26 05:08:53;;;;;;;4.28;2.17;;;22.00;64.20;;;;;;5030591;28;20437;-66
2022/09/26 05:11:20;;;;;;;4.03;2.08;;;21.80;64.80;;;;;;5030417;28;20025;-66
2022/09/26 05:13:49;;;;;;;4.80;2.92;;;21.70;65.10;;;;;;5028857;28;20041;-66
2022/09/26 05:16:18;;;;;;;4.50;2.20;;;21.40;63.90;;;;;;5028442;28;20111;-68
2022/09/26 05:18:50;;;;;;;3.75;2.42;;;21.20;66.20;;;;;;5029059;28;20033;-66
2022/09/26 08:50:32;;;;;;;9.57;3.35;;;16.70;96.60;;;;;;5086671;27;20469;-59
2022/09/26 08:53:09;;;;;;;6.70;3.30;;;16.40;97.00;;;;;;5086604;28;20464;-60
2022/09/26 08:55:42;;;;;;;8.38;2.92;;;16.40;97.20;;;;;;5087034;28;20031;-59
2022/09/26 08:58:27;;;;;;;5.70;3.10;;;16.40;96.90;;;;;;5066858;28;20037;-60
2022/09/26 09:01:01;;;;;;;12.70;3.47;;;16.40;97.00;;;;;;5085935;28;20020;-59
2022/09/26 09:03:28;;;;;;;8.20;3.28;;;16.40;97.20;;;;;;5086470;28;20098;-59
2022/09/26 09:06:11;;;;;;;7.65;3.15;;;16.30;97.20;;;;;;5086608;28;20028;-59
2022/09/26 09:08:47;;;;;;;8.10;2.90;;;16.30;97.30;;;;;;5086058;28;20032;-54
2022/09/26 09:11:23;;;;;;;5.18;2.50;;;16.20;97.30;;;;;;5085993;28;20504;-59
2022/09/26 09:14:03;;;;;;;6.45;2.88;;;16.20;97.50;;;;;;5086385;28;20396;-59
2022/09/26 09:16:32;;;;;;;5.78;2.67;;;16.20;97.60;;;;;;5086649;28;20099;-59
2022/09/26 09:19:10;;;;;;;10.38;3.60;;;16.20;97.60;;;;;;5086428;28;20506;-59
2022/09/26 09:22:14;;;;;;;7.60;3.60;;;16.20;97.60;;;;;;5085838;28;20024;-59
2022/09/26 09:25:06;;;;;;;7.65;3.90;;;16.10;97.70;;;;;;5086390;28;20571;-59
2022/09/26 09:28:00;;;;;;;7.70;3.95;;;16.00;97.90;;;;;;5084458;28;20488;-60
2022/09/26 09:30:36;;;;;;;8.75;2.67;;;15.90;98.10;;;;;;5084251;28;20041;-60
2022/09/26 09:33:29;;;;;;;7.35;2.75;;;15.90;98.20;;;;;;5084448;28;20036;-59
2022/09/26 09:36:01;;;;;;;6.07;3.22;;;15.70;98.10;;;;;;5063517;28;20404;-59
2022/09/26 09:38:32;;;;;;;9.13;3.60;;;15.60;98.50;;;;;;5043954;28;20100;-59
2022/09/26 09:41:17;;;;;;;7.30;3.35;;;15.60;99.10;;;;;;5044099;28;20026;-59
2022/09/26 09:44:02;;;;;;;6.82;3.20;;;15.50;99.00;;;;;;5046142;28;20539;-59
2022/09/26 09:46:37;;;;;;;4.95;3.05;;;15.30;99.30;;;;;;5046043;28;20458;-59
2022/09/26 09:49:09;;;;;;;;;;;15.30;99.30;;;;;;5044163;28;20481;-58
2022/09/26 09:52:04;;;;;;;7.32;3.25;;;15.20;99.50;;;;;;5032275;28;19928;-59
2022/09/26 09:54:48;;;;;;;5.97;3.40;;;15.10;99.80;;;;;;5032435;28;20167;-59
2022/09/26 09:57:39;;;;;;;6.18;3.67;;;15.10;99.90;;;;;;5032851;28;20415;-59
2022/09/26 10:00:09;;;;;;;5.78;3.15;;;15.00;99.90;;;;;;5031205;28;20029;-59
2022/09/26 10:02:48;;;;;;;12.60;3.40;;;15.00;99.90;;;;;;5031071;28;20794;-61
2022/09/26 10:05:37;;;;;;;7.78;3.50;;;15.00;99.90;;;;;;5031377;28;20037;-61
2022/09/26 10:08:12;;;;;;;11.82;3.90;;;15.00;99.90;;;;;;5031914;28;20566;-60
2022/09/26 10:11:15;;;;;;;5.22;3.22;;;14.90;99.90;;;;;;5031967;28;20033;-60
2022/09/26 10:13:44;;;;;;;9.68;3.53;;;14.90;99.90;;;;;;5032077;28;20018;-60
2022/09/26 10:16:14;;;;;;;6.80;3.83;;;14.90;99.90;;;;;;5030632;28;20036;-59
2022/09/26 10:19:06;;;;;;;8.02;3.60;;;14.90;99.90;;;;;;5030834;28;20525;-59
2022/09/26 10:21:42;;;;;;;6.60;3.25;;;14.90;99.90;;;;;;5031911;28;20029;-60
2022/09/26 10:24:37;;;;;;;6.30;3.85;;;14.80;99.90;;;;;;5031935;28;20036;-60
2022/09/26 10:27:28;;;;;;;12.48;4.30;;;14.80;99.90;;;;;;5031905;28;20371;-60
2022/09/26 10:30:06;;;;;;;6.60;3.40;;;14.80;99.90;;;;;;5031882;28;20120;-60
2022/09/26 10:32:46;;;;;;;11.32;4.78;;;14.80;99.90;;;;;;5031691;28;20025;-60
2022/09/26 10:35:19;;;;;;;7.93;4.35;;;14.90;99.90;;;;;;5031811;28;20017;-60
2022/09/26 10:38:00;;;;;;;12.20;3.92;;;14.90;99.90;;;;;;5030580;28;20034;-59
2022/09/26 10:40:45;;;;;;;6.97;3.42;;;14.90;99.90;;;;;;5031473;28;20022;-59
2022/09/26 10:43:19;;;;;;;5.75;3.47;;;14.90;99.90;;;;;;5031487;28;20036;-60
2022/09/26 10:45:52;;;;;;;5.68;3.47;;;14.80;99.90;;;;;;5031669;28;20048;-60
2022/09/26 10:48:21;;;;;;;7.38;3.88;;;14.70;99.90;;;;;;5031212;28;20072;-60
2022/09/26 10:50:50;;;;;;;9.93;4.07;;;14.70;99.90;;;;;;5031736;28;20056;-60
2022/09/26 10:53:22;;;;;;;8.38;3.75;;;14.70;99.90;;;;;;5031811;28;20026;-60
2022/09/26 10:56:05;;;;;;;6.72;3.80;;;14.60;99.90;;;;;;5031231;28;20067;-60
2022/09/26 10:58:38;;;;;;;6.50;3.30;;;14.60;99.90;;;;;;5029936;28;20374;-60
2022/09/26 11:01:06;;;;;;;9.90;4.97;;;14.50;99.90;;;;;;5030561;28;20140;-59
2022/09/26 11:03:43;;;;;;;7.57;4.32;;;14.50;99.90;;;;;;5031067;28;20057;-59
2022/09/26 11:06:39;;;;;;;8.18;4.03;;;14.40;99.90;;;;;;5031020;28;20124;-59
2022/09/26 11:09:07;;;;;;;7.93;4.80;;;14.30;99.90;;;;;;5029722;28;20036;-59
2022/09/26 11:11:38;;;;;;;9.55;4.40;;;14.20;99.90;;;;;;5030929;28;20105;-60
2022/09/26 11:14:07;;;;;;;8.40;4.32;;;14.20;99.90;;;;;;5030758;28;20099;-60
2022/09/26 11:16:51;;;;;;;8.77;4.35;;;14.10;99.90;;;;;;5029662;28;20505;-60
2022/09/26 11:19:26;;;;;;;7.93;3.50;;;13.90;99.90;;;;;;5031371;28;20029;-59
2022/09/26 11:22:03;;;;;;;10.55;4.40;;;13.90;99.90;;;;;;5044853;28;20028;-59
2022/09/26 11:25:17;;;;;;;6.25;3.78;;;13.80;99.90;;;;;;5050537;28;20086;-60
2022/09/26 11:28:07;;;;;;;6.60;3.92;;;13.80;99.90;;;;;;5046104;28;20045;-59
2022/09/26 11:30:49;;;;;;;14.95;5.07;;;13.70;99.90;;;;;;5050466;28;20111;-59
2022/09/26 11:33:17;;;;;;;9.70;6.00;;;13.60;99.90;;;;;;5050938;28;20047;-59
2022/09/26 11:35:57;;;;;;;10.45;5.22;;;13.50;99.90;;;;;;5049235;28;20054;-60
2022/09/26 11:38:27;;;;;;;13.68;5.25;;;13.50;99.90;;;;;;5050522;28;20025;-59
2022/09/26 11:41:35;;;;;;;9.25;5.00;;;13.50;99.90;;;;;;5050204;28;20017;-60
2022/09/26 11:44:38;;;;;;;9.68;4.40;;;13.50;99.90;;;;;;5049186;28;20485;-59
2022/09/26 11:47:39;;;;;;;13.07;5.03;;;13.50;99.90;;;;;;5050391;28;20024;-60
2022/09/26 11:50:19;;;;;;;11.27;4.60;;;13.50;99.90;;;;;;5050043;28;20105;-60
2022/09/26 11:53:14;;;;;;;11.90;4.38;;;13.40;99.90;;;;;;5050700;28;20021;-60
2022/09/26 11:56:06;;;;;;;7.82;4.63;;;13.50;99.90;;;;;;5048590;28;20047;-60
2022/09/26 11:58:39;;;;;;;10.85;4.78;;;13.40;99.90;;;;;;5050046;28;20025;-59
2022/09/26 12:01:37;;;;;;;11.50;5.10;;;13.40;99.90;;;;;;5048616;28;20452;-59
2022/09/26 12:04:44;;;;;;;7.63;4.72;;;13.40;99.90;;;;;;5047972;28;20033;-60
2022/09/26 12:07:52;;;;;;;10.57;5.43;;;13.40;99.90;;;;;;5039644;28;20029;-60
2022/09/26 12:10:35;;;;;;;9.85;5.28;;;13.40;99.90;;;;;;5044710;28;20584;-60
2022/09/26 12:13:05;;;;;;;10.98;5.47;;;13.30;99.90;;;;;;5049872;28;20032;-60
2022/09/26 12:15:38;;;;;;;9.85;5.22;;;13.30;99.90;;;;;;5048468;28;20528;-60
2022/09/26 12:18:12;;;;;;;6.82;5.07;;;13.30;99.90;;;;;;5049761;28;20025;-59
2022/09/26 12:21:05;;;;;;;10.30;5.18;;;13.30;99.90;;;;;;5049695;28;20079;-58
2022/09/26 12:23:49;;;;;;;7.72;4.97;;;13.30;99.90;;;;;;5048531;28;20029;-59
2022/09/26 12:26:22;;;;;;;9.93;5.10;;;13.40;99.90;;;;;;5050479;28;20055;-59
2022/09/26 12:29:13;;;;;;;9.80;5.50;;;13.40;99.90;;;;;;5049724;28;20108;-59
2022/09/26 12:31:58;;;;;;;7.70;5.38;;;13.40;99.90;;;;;;5048192;28;20025;-59
2022/09/26 12:34:50;;;;;;;7.60;5.53;;;13.30;99.90;;;;;;5044988;28;20560;-59
2022/09/26 12:37:45;;;;;;;7.50;5.10;;;13.30;99.90;;;;;;5048142;28;20060;-59
2022/09/26 12:40:13;;;;;;;9.25;5.20;;;13.20;99.90;;;;;;5047941;28;20500;-58
2022/09/26 12:43:21;;;;;;;11.98;6.05;;;13.20;99.90;;;;;;5047929;28;20048;-59
2022/09/26 12:45:48;;;;;;;15.45;6.22;;;13.00;99.90;;;;;;5060708;28;20140;-58
2022/09/26 12:48:33;;;;;;;10.07;4.90;;;12.90;99.90;;;;;;5048763;28;20056;-60
2022/09/26 12:51:29;;;;;;;10.50;5.70;;;12.70;99.90;;;;;;5043715;28;20025;-61
2022/09/26 12:54:05;;;;;;;12.80;5.55;;;12.60;99.90;;;;;;5049028;28;20405;-60
2022/09/26 12:56:53;;;;;;;8.10;5.25;;;12.60;99.90;;;;;;5052935;28;20029;-60
2022/09/26 12:59:23;;;;;;;9.68;5.45;;;12.50;99.90;;;;;;5052837;28;20108;-60
2022/09/26 13:01:56;;;;;;;9.85;5.57;;;12.40;99.90;;;;;;5053861;28;20385;-60
2022/09/26 13:04:53;;;;;;;9.48;5.15;;;12.40;99.90;;;;;;5058926;28;20025;-58
2022/09/26 13:07:51;;;;;;;9.18;5.47;;;12.20;99.90;;;;;;5055570;28;20027;-58
2022/09/26 13:10:54;;;;;;;11.60;5.18;;;12.10;99.90;;;;;;5051239;28;20039;-59
2022/09/26 13:13:44;;;;;;;6.70;5.03;;;12.10;99.90;;;;;;5054221;28;20047;-60
2022/09/26 13:16:55;;;;;;;11.18;6.80;;;12.10;99.90;;;;;;5051504;28;20033;-59
2022/09/26 13:19:47;;;;;;;18.02;6.70;;;12.00;99.90;;;;;;5026121;28;20406;-59
2022/09/26 13:22:14;;;;;;;11.63;6.20;;;12.10;99.90;;;;;;5009136;28;20045;-61
2022/09/26 13:25:17;;;;;;;12.07;6.45;;;12.10;99.90;;;;;;5038765;28;20036;-59
2022/09/26 13:28:09;;;;;;;10.80;6.05;;;12.10;99.90;;;;;;5052867;28;20079;-58
2022/09/26 13:30:40;;;;;;;13.10;6.90;;;12.00;99.90;;;;;;5052291;28;20028;-59
2022/09/26 13:33:27;;;;;;;17.48;7.53;;;12.10;99.90;;;;;;5054713;28;20485;-59
2022/09/26 13:35:59;;;;;;;18.25;7.03;;;12.20;99.90;;;;;;5063008;28;20027;-59
2022/09/26 13:38:52;;;;;;;10.60;6.18;;;12.10;99.90;;;;;;5056754;28;20846;-64
2022/09/26 13:41:35;;;;;;;13.18;6.50;;;12.00;99.90;;;;;;5059713;28;20051;-59
2022/09/26 13:44:21;;;;;;;11.15;6.25;;;12.00;99.90;;;;;;5058179;28;20021;-60
2022/09/26 13:47:18;;;;;;;11.82;6.75;;;12.00;99.90;;;;;;5052900;28;20017;-61
2022/09/26 13:50:13;;;;;;;20.20;7.03;;;12.00;99.90;;;;;;5057637;28;20070;-59
2022/09/26 13:53:06;;;;;;;11.95;7.07;;;12.10;99.90;;;;;;5042746;28;20037;-59
2022/09/26 13:55:35;;;;;;;11.23;6.68;;;12.20;99.90;;;;;;5055934;28;20037;-58
2022/09/26 13:58:27;;;;;;;11.32;6.38;;;12.20;99.90;;;;;;5049501;28;20036;-60
2022/09/26 14:01:14;;;;;;;11.40;6.82;;;12.20;99.90;;;;;;5052922;28;20021;-59
2022/09/26 14:03:42;;;;;;;13.45;6.82;;;12.20;99.90;;;;;;5054627;28;20029;-60
2022/09/26 14:06:26;;;;;;;15.25;7.30;;;12.30;99.90;;;;;;5048497;28;20024;-61
2022/09/26 14:09:24;;;;;;;13.95;7.50;;;12.30;99.90;;;;;;5054107;28;20040;-60
2022/09/26 14:12:12;;;;;;;13.20;8.32;;;12.30;99.90;;;;;;5076137;28;20021;-59
2022/09/26 14:14:51;;;;;;;19.08;8.38;;;12.30;99.90;;;;;;5047891;28;20029;-59
2022/09/26 14:17:46;;;;;;;16.30;8.32;;;12.40;99.90;;;;;;5052263;28;20489;-64
2022/09/26 14:20:22;;;;;;;17.20;9.27;;;12.60;99.90;;;;;;5048488;28;20539;-59
2022/09/26 14:22:53;;;;;;;15.52;9.02;;;12.70;99.90;;;;;;5051946;28;20489;-60
2022/09/26 14:25:56;;;;;;;16.88;9.20;;;12.70;99.90;;;;;;5051062;28;20078;-59
2022/09/26 14:28:38;;;;;;;20.95;10.15;;;12.90;99.90;;;;;;5028760;28;20025;-59
2022/09/26 14:31:15;;;;;;;17.35;8.77;;;13.00;99.90;;;;;;5048991;28;20098;-59
2022/09/26 14:33:47;;;;;;;25.25;10.43;;;13.00;99.90;;;;;;5050880;28;20413;-59
2022/09/26 14:36:29;;;;;;;18.75;10.50;;;13.10;99.90;;;;;;5051992;28;20079;-59
2022/09/26 14:38:57;;;;;;;17.65;8.00;;;13.10;99.90;;;;;;5050997;28;20021;-59
2022/09/26 14:41:29;;;;;;;11.80;7.28;;;13.00;99.90;;;;;;5051168;28;20029;-60
2022/09/26 14:44:06;;;;;;;11.23;7.13;;;13.00;99.90;;;;;;5049982;28;20389;-59
2022/09/26 14:46:35;;;;;;;18.52;7.53;;;12.90;99.90;;;;;;5051402;28;20035;-59
2022/09/26 14:49:06;;;;;;;14.43;7.28;;;13.00;99.90;;;;;;5051170;28;20114;-59
2022/09/26 14:51:41;;;;;;;10.35;6.20;;;12.90;99.90;;;;;;5051145;28;20029;-59
2022/09/26 14:54:34;;;;;;;12.05;6.72;;;12.90;99.90;;;;;;5050194;28;20032;-59
2022/09/26 14:57:09;;;;;;;13.18;7.00;;;12.80;99.90;;;;;;5050010;28;20082;-60
2022/09/26 14:59:38;;;;;;;14.07;7.07;;;12.70;99.90;;;;;;5050075;28;20384;-59
2022/09/26 15:02:19;;;;;;;16.55;6.95;;;12.70;99.90;;;;;;5045826;28;20060;-60
2022/09/26 15:05:08;;;;;;;11.63;7.00;;;12.70;99.90;;;;;;5047098;28;20053;-59
2022/09/26 15:07:48;;;;;;;11.93;6.68;;;12.60;99.90;;;;;;5045909;28;20485;-59
2022/09/26 15:10:23;;;;;;;14.95;7.13;;;12.60;99.90;;;;;;5046837;28;20443;-60
2022/09/26 15:13:14;;;;;;;15.48;7.68;;;12.60;99.90;;;;;;5047560;28;20021;-59
2022/09/26 15:16:19;;;;;;;19.80;9.50;;;12.60;99.90;;;;;;5048666;28;20030;-59
2022/09/26 15:19:04;;;;;;;17.63;9.30;;;12.70;99.90;;;;;;5007833;28;20040;-60
2022/09/26 15:21:41;;;;;;;16.25;8.20;;;12.60;99.90;;;;;;5043988;28;20029;-60
2022/09/26 15:24:35;;;;;;;17.42;8.15;;;12.50;99.90;;;;;;5038843;28;20551;-59
2022/09/26 15:27:28;;;;;;;11.23;7.00;;;12.40;99.90;;;;;;5047670;28;20507;-57
2022/09/26 15:30:04;;;;;;;15.88;8.48;;;12.30;99.90;;;;;;5046745;28;20025;-58
2022/09/26 15:32:33;;;;;;;14.77;7.88;;;12.20;99.90;;;;;;5048194;28;20025;-59
2022/09/26 15:35:06;;;;;;;13.82;7.72;;;12.20;99.90;;;;;;5048781;28;20029;-59
2022/09/26 15:37:35;;;;;;;12.45;6.05;;;12.10;99.90;;;;;;5047299;28;20086;-58
2022/09/26 15:40:16;;;;;;;10.73;5.82;;;12.00;99.90;;;;;;5047323;28;20086;-59
2022/09/26 15:43:00;;;;;;;12.68;6.55;;;11.80;99.90;;;;;;5047972;28;20033;-59
2022/09/26 15:45:55;;;;;;;13.75;7.53;;;11.70;99.90;;;;;;5046412;28;20143;-60
2022/09/26 15:48:31;;;;;;;13.85;7.45;;;11.60;99.90;;;;;;5042277;28;20089;-59
2022/09/26 15:51:11;;;;;;;15.75;7.65;;;11.50;99.90;;;;;;5045893;28;20033;-59
2022/09/26 15:53:44;;;;;;;15.13;7.50;;;11.50;99.90;;;;;;5046083;28;20032;-59
2022/09/26 15:56:20;;;;;;;15.73;8.43;;;11.40;99.90;;;;;;5047904;28;20023;-60
2022/09/26 15:59:25;;;;;;;14.13;8.52;;;11.40;99.90;;;;;;5045835;28;20282;-60
2022/09/26 16:01:53;;;;;;;13.02;8.15;;;11.30;99.90;;;;;;5025979;28;20450;-58
2022/09/26 16:04:27;;;;;;;17.58;8.77;;;11.30;99.90;;;;;;5045195;28;20053;-59
2022/09/26 16:07:00;;;;;;;18.73;9.25;;;11.30;99.90;;;;;;5046871;28;20025;-59
2022/09/26 16:09:35;;;;;;;19.73;8.98;;;11.20;99.90;;;;;;5037813;28;20095;-59
2022/09/26 16:12:21;;;;;;;18.80;9.02;;;11.30;99.90;;;;;;5040587;28;20025;-59
2022/09/26 16:14:58;;;;;;;24.42;11.35;;;11.30;99.90;;;;;;5054448;28;20017;-58
2022/09/26 16:17:45;;;;;;;20.77;11.75;;;11.40;99.90;;;;;;5046965;28;21813;-58
2022/09/26 16:20:15;;;;;;;19.55;10.93;;;11.50;99.90;;;;;;5046695;28;20170;-59
2022/09/26 16:22:56;;;;;;;20.08;9.63;;;11.50;99.90;;;;;;5047584;28;20025;-59
2022/09/26 16:25:35;;;;;;;18.90;9.48;;;11.50;99.90;;;;;;5045058;28;20178;-59
2022/09/26 16:28:21;;;;;;;21.30;8.95;;;11.40;99.90;;;;;;5044775;28;20033;-58
2022/09/26 16:31:15;;;;;;;18.45;10.00;;;11.40;99.90;;;;;;5045058;28;20028;-60
2022/09/26 16:33:51;;;;;;;17.88;8.88;;;11.40;99.90;;;;;;5047077;28;20029;-59
2022/09/26 16:36:22;;;;;;;18.75;9.70;;;11.40;99.90;;;;;;5047026;28;20029;-64
2022/09/26 16:38:59;;;;;;;16.98;9.30;;;11.40;99.90;;;;;;5044980;28;20057;-60
2022/09/26 16:41:41;;;;;;;18.83;9.75;;;11.40;99.90;;;;;;5044334;28;20028;-59
2022/09/26 16:44:41;;;;;;;26.38;12.63;;;11.40;99.90;;;;;;5046218;28;20086;-58
2022/09/26 16:47:43;;;;;;;37.22;15.73;;;11.70;99.90;;;;;;5043631;28;20029;-58
2022/09/26 16:50:29;;;;;;;31.15;13.02;;;11.80;99.90;;;;;;5045774;28;20049;-58
2022/09/26 16:52:57;;;;;;;33.22;12.95;;;11.90;99.90;;;;;;5040126;28;20520;-59
2022/09/26 16:55:26;;;;;;;30.75;12.48;;;12.00;99.90;;;;;;5042125;28;20035;-59
2022/09/26 16:58:04;;;;;;;24.90;12.05;;;12.00;99.90;;;;;;5045360;28;20020;-59
2022/09/26 17:03:31;;;;;;;35.05;13.05;;;12.00;99.90;;;;;;5047771;28;20033;-60
2022/09/26 17:05:59;;;;;;;24.23;12.00;;;12.10;99.90;;;;;;5044312;28;20104;-59
2022/09/26 17:08:27;;;;;;;26.27;12.10;;;12.20;99.90;;;;;;5049624;28;20033;-58
2022/09/26 17:11:01;;;;;;;30.27;12.52;;;12.20;99.90;;;;;;5049048;28;20421;-60
2022/09/26 17:13:31;;;;;;;21.08;10.85;;;12.20;99.90;;;;;;5059126;28;20032;-59
2022/09/26 17:16:02;;;;;;;24.42;10.38;;;12.20;99.90;;;;;;5052163;28;20485;-60